Time;durP1;ratioP1;P1;durP2;ratioP2;P2;SDS_P1;SDS_P2;PMS_P1;PMS_P2;Temp;Humidity;BMP_temperature;BMP_pressure;BME280_temperature;BME280_humidity;BME280_pressure;Samples;Min_cycle;Max_cycle;Signal;HPM_P1;HPM_P2
2024/02/04 00:01:39;;;;;;;70.55;31.40;;;;;;;2.13;100.00;97877.53;5075709;28;20032;-79
2024/02/04 00:04:05;;;;;;;176.18;70.75;;;;;;;2.10;100.00;97868.81;5067370;28;20395;-79
2024/02/04 00:06:31;;;;;;;184.40;73.60;;;;;;;2.15;100.00;97875.69;5064046;28;20032;-79
2024/02/04 00:08:57;;;;;;;158.07;63.92;;;;;;;2.21;100.00;97877.34;5061917;28;20033;-80
2024/02/04 00:11:22;;;;;;;143.05;54.13;;;;;;;2.21;100.00;97861.53;5056770;28;20028;-80
2024/02/04 00:13:48;;;;;;;75.70;33.53;;;;;;;2.24;100.00;97865.84;5064767;28;20514;-80
2024/02/04 00:16:13;;;;;;;74.25;30.65;;;;;;;2.23;100.00;97862.34;5059355;28;20027;-78
2024/02/04 00:18:39;;;;;;;72.60;29.98;;;;;;;2.30;100.00;97855.16;5084983;28;20396;-78
2024/02/04 00:21:05;;;;;;;63.08;28.17;;;;;;;2.33;100.00;97861.22;5067950;28;20476;-79
2024/02/04 00:23:30;;;;;;;66.32;27.98;;;;;;;2.41;100.00;97863.66;5062582;28;20027;-80
2024/02/04 00:25:56;;;;;;;83.53;35.97;;;;;;;2.39;100.00;97858.44;5075246;28;20424;-79
2024/02/04 00:28:21;;;;;;;67.65;31.15;;;;;;;2.38;100.00;97854.03;5065447;28;20032;-79
2024/02/04 00:30:49;;;;;;;76.38;33.03;;;;;;;2.41;100.00;97864.53;5060138;28;20441;-79
2024/02/04 00:33:15;;;;;;;84.90;32.28;;;;;;;2.51;100.00;97860.75;5066888;28;20028;-79
2024/02/04 00:35:41;;;;;;;62.88;25.30;;;;;;;2.51;100.00;97860.75;5071332;28;20461;-79
2024/02/04 00:38:08;;;;;;;53.80;22.10;;;;;;;2.48;100.00;97852.91;5062427;28;20027;-81
2024/02/04 00:40:34;;;;;;;42.78;17.75;;;;;;;2.51;100.00;97858.13;5092206;28;20115;-78
2024/02/04 00:43:00;;;;;;;31.70;14.75;;;;;;;2.37;100.00;97847.03;5057914;28;20060;-79
2024/02/04 00:45:25;;;;;;;28.58;14.77;;;;;;;2.38;100.00;97846.13;5082455;28;20069;-80
2024/02/04 00:47:51;;;;;;;39.85;17.88;;;;;;;2.46;100.00;97846.78;5074816;28;20043;-78
2024/02/04 00:50:17;;;;;;;33.72;16.85;;;;;;;2.54;100.00;97839.56;5067594;28;20059;-79
2024/02/04 00:52:42;;;;;;;34.53;17.58;;;;;;;2.67;100.00;97843.63;5081718;28;20020;-79
2024/02/04 00:55:08;;;;;;;38.33;16.58;;;;;;;2.71;100.00;97853.19;5059385;28;20111;-79
2024/02/04 00:57:34;;;;;;;42.45;20.75;;;;;;;2.78;100.00;97850.38;5063125;28;20062;-78
2024/02/04 00:59:59;;;;;;;40.40;18.35;;;;;;;2.78;100.00;97842.47;5071527;28;20097;-79
2024/02/04 01:02:25;;;;;;;38.28;18.05;;;;;;;2.67;100.00;97822.50;5063684;28;20535;-78
2024/02/04 01:04:51;;;;;;;45.10;21.50;;;;;;;2.82;100.00;97834.44;5077832;28;20032;-78
2024/02/04 01:07:17;;;;;;;44.95;21.13;;;;;;;2.85;100.00;97838.75;5071072;28;20480;-78
2024/02/04 01:09:43;;;;;;;58.78;25.73;;;;;;;2.92;100.00;97825.34;5065756;28;20534;-77
2024/02/04 01:12:08;;;;;;;47.60;21.88;;;;;;;2.96;100.00;97823.47;5091989;28;20024;-79
2024/02/04 01:14:34;;;;;;;61.25;24.67;;;;;;;3.05;100.00;97831.16;5063596;28;20023;-80
2024/02/04 01:17:00;;;;;;;59.60;25.77;;;;;;;3.01;100.00;97803.97;5071528;28;20048;-79
2024/02/04 01:19:25;;;;;;;46.78;21.10;;;;;;;3.09;100.00;97807.25;5062595;28;20024;-80
2024/02/04 01:21:51;;;;;;;62.25;24.40;;;;;;;3.16;100.00;97806.19;5070279;28;20109;-79
2024/02/04 01:24:16;;;;;;;52.88;24.27;;;;;;;3.23;100.00;97807.72;5062654;28;20605;-79
2024/02/04 01:26:42;;;;;;;50.83;23.05;;;;;;;3.29;100.00;97804.03;5067065;28;20560;-80
2024/02/04 01:29:08;;;;;;;50.30;22.92;;;;;;;3.25;100.00;97800.63;5065762;28;20170;-79
2024/02/04 01:31:33;;;;;;;53.08;23.27;;;;;;;3.36;100.00;97797.66;5062954;28;20033;-80
2024/02/04 01:33:59;;;;;;;49.08;23.55;;;;;;;3.45;100.00;97794.72;5068330;28;20024;-79
2024/02/04 01:36:25;;;;;;;63.90;26.88;;;;;;;3.49;100.00;97793.72;5090851;28;20046;-79
2024/02/04 01:38:50;;;;;;;59.72;25.75;;;;;;;3.55;100.00;97777.69;5090726;28;20380;-79
2024/02/04 01:41:16;;;;;;;69.30;28.73;;;;;;;3.60;100.00;97783.69;5057280;28;20400;-79
2024/02/04 01:43:41;;;;;;;67.10;28.45;;;;;;;3.53;100.00;97771.59;5064816;28;20039;-79
2024/02/04 01:46:08;;;;;;;65.35;27.83;;;;;;;3.60;100.00;97781.03;5073742;28;20096;-79
2024/02/04 01:48:34;;;;;;;77.82;32.72;;;;;;;3.49;100.00;97780.50;5073348;28;20031;-79
2024/02/04 01:51:00;;;;;;;64.15;27.35;;;;;;;3.49;100.00;97767.28;5073698;28;20510;-78
2024/02/04 01:53:26;;;;;;;55.72;26.77;;;;;;;3.26;100.00;97775.06;5064887;28;20406;-78
2024/02/04 01:55:52;;;;;;;63.63;27.98;;;;;;;3.32;100.00;97766.09;5062689;28;20098;-78
2024/02/04 01:58:18;;;;;;;51.97;24.63;;;;;;;3.41;100.00;97782.53;5060671;28;20488;-79
2024/02/04 02:00:43;;;;;;;61.83;27.70;;;;;;;3.32;100.00;97787.22;5064576;28;20028;-79
2024/02/04 02:03:11;;;;;;;60.85;27.30;;;;;;;3.25;100.00;97781.25;5088978;28;20073;-79
2024/02/04 02:05:37;;;;;;;73.28;29.73;;;;;;;3.25;100.00;97786.53;5072541;28;20032;-78
2024/02/04 02:08:03;;;;;;;77.85;33.35;;;;;;;3.26;100.00;97773.25;5069898;28;20028;-79
2024/02/04 02:10:29;;;;;;;66.63;32.60;;;;;;;3.43;100.00;97788.63;5061393;28;20021;-79
2024/02/04 02:13:22;;;;;;;81.22;35.08;;;;;;;3.42;100.00;97784.25;5054690;28;20123;-79
2024/02/04 02:16:11;;;;;;;81.97;36.75;;;;;;;3.44;100.00;97779.81;5059545;28;20040;-79
2024/02/04 02:18:46;;;;;;;76.63;33.42;;;;;;;3.40;100.00;97786.09;5053134;28;20032;-79
2024/02/04 02:21:30;;;;;;;78.40;34.22;;;;;;;3.25;100.00;97783.91;5080267;28;20051;-79
2024/02/04 02:24:24;;;;;;;76.53;32.55;;;;;;;3.14;100.00;97778.03;5085917;28;20024;-79
2024/02/04 02:26:50;;;;;;;72.53;29.33;;;;;;;3.13;100.00;97758.69;5072323;28;20039;-79
2024/02/04 02:29:16;;;;;;;55.83;26.50;;;;;;;3.29;100.00;97778.47;5088560;28;20085;-79
2024/02/04 02:31:42;;;;;;;56.25;26.52;;;;;;;3.31;100.00;97759.91;5077957;28;20135;-79
2024/02/04 02:34:09;;;;;;;51.90;25.75;;;;;;;3.45;100.00;97772.72;5066889;28;20022;-79
2024/02/04 02:37:05;;;;;;;56.35;28.23;;;;;;;3.48;100.00;97759.41;5072553;28;20023;-80
2024/02/04 02:39:36;;;;;;;62.15;27.35;;;;;;;3.48;100.00;97762.91;5049855;28;20215;-78
2024/02/04 02:42:04;;;;;;;77.47;33.88;;;;;;;3.47;100.00;97760.31;5052564;28;20032;-77
2024/02/04 02:44:30;;;;;;;70.40;31.90;;;;;;;3.47;100.00;97773.56;5069522;28;20020;-78
2024/02/04 02:46:57;;;;;;;63.95;30.33;;;;;;;3.52;100.00;97777.78;5059646;28;20500;-78
2024/02/04 02:49:23;;;;;;;68.13;30.42;;;;;;;3.47;100.00;97777.06;5068436;28;20499;-71
2024/02/04 02:51:48;;;;;;;70.90;29.02;;;;;;;3.48;100.00;97762.91;5080151;28;20135;-76
2024/02/04 02:54:14;;;;;;;56.10;25.63;;;;;;;3.44;100.00;97761.28;5058057;28;20031;-76
2024/02/04 02:56:40;;;;;;;59.17;25.13;;;;;;;3.51;100.00;97768.09;5072518;28;20469;-77
2024/02/04 02:59:05;;;;;;;52.60;24.65;;;;;;;3.42;100.00;97763.09;5089219;28;20476;-77
2024/02/04 03:01:31;;;;;;;56.03;25.27;;;;;;;3.49;100.00;97756.72;5072494;28;20538;-77
2024/02/04 03:03:57;;;;;;;62.42;26.33;;;;;;;3.41;100.00;97761.38;5070728;28;20511;-77
2024/02/04 03:06:22;;;;;;;57.03;25.48;;;;;;;3.49;100.00;97753.22;5066244;28;20039;-77
2024/02/04 03:08:48;;;;;;;57.88;26.17;;;;;;;3.49;100.00;97762.00;5072153;28;20032;-78
2024/02/04 03:11:14;;;;;;;55.90;26.92;;;;;;;3.40;100.00;97758.78;5072415;28;20111;-77
2024/02/04 03:13:39;;;;;;;55.33;25.60;;;;;;;3.42;100.00;97756.94;5055608;28;20026;-76
2024/02/04 03:16:13;;;;;;;59.08;26.02;;;;;;;3.55;100.00;97775.03;5072690;28;20082;-77
2024/02/04 03:18:40;;;;;;;55.75;25.63;;;;;;;3.57;100.00;97772.38;5072294;28;20024;-76
2024/02/04 03:21:12;;;;;;;57.28;26.17;;;;;;;3.55;100.00;97769.75;5072197;28;20471;-77
2024/02/04 03:23:38;;;;;;;51.00;25.25;;;;;;;3.58;100.00;97780.22;5057313;28;20094;-77
2024/02/04 03:26:03;;;;;;;56.83;24.92;;;;;;;3.61;100.00;97781.91;5076953;28;20052;-76
2024/02/04 03:28:29;;;;;;;56.50;26.15;;;;;;;3.53;100.00;97763.66;5068790;28;20063;-75
2024/02/04 03:30:55;;;;;;;55.40;25.40;;;;;;;3.65;100.00;97768.56;5060849;28;20074;-76
2024/02/04 03:33:20;;;;;;;45.50;22.77;;;;;;;3.66;100.00;97761.50;5072272;28;20110;-76
2024/02/04 03:35:46;;;;;;;51.25;23.15;;;;;;;3.65;100.00;97762.41;5089308;28;20032;-77
2024/02/04 03:38:11;;;;;;;54.65;24.20;;;;;;;3.65;100.00;97762.41;5056896;28;20020;-77
2024/02/04 03:40:37;;;;;;;58.78;25.25;;;;;;;3.57;100.00;97762.63;5072139;28;20501;-75
2024/02/04 03:43:03;;;;;;;55.65;25.75;;;;;;;3.56;100.00;97766.19;5089072;28;20028;-77
2024/02/04 03:45:28;;;;;;;59.05;24.70;;;;;;;3.74;100.00;97781.50;5071782;28;20028;-77
2024/02/04 03:47:54;;;;;;;54.83;23.77;;;;;;;3.77;100.00;97772.59;5056654;28;20063;-76
2024/02/04 03:50:20;;;;;;;56.95;26.05;;;;;;;3.80;100.00;97777.78;5088670;28;20055;-76
2024/02/04 03:52:45;;;;;;;48.10;23.00;;;;;;;3.78;100.00;97772.53;5058175;28;20116;-75
2024/02/04 03:55:11;;;;;;;47.38;23.63;;;;;;;3.79;100.00;97776.03;5062114;28;20613;-77
2024/02/04 03:57:36;;;;;;;56.00;27.63;;;;;;;3.71;100.00;97765.72;5068146;28;20036;-76
2024/02/04 04:00:03;;;;;;;55.90;26.60;;;;;;;3.76;100.00;97771.72;5051829;28;20028;-76
2024/02/04 04:02:28;;;;;;;56.45;26.80;;;;;;;3.87;100.00;97781.13;5054568;28;20036;-76
2024/02/04 04:04:54;;;;;;;55.40;26.00;;;;;;;3.84;100.00;97763.56;5065567;28;20028;-77
2024/02/04 04:07:19;;;;;;;50.28;25.05;;;;;;;3.87;100.00;97768.75;5052974;28;20089;-77
2024/02/04 04:09:45;;;;;;;57.08;26.13;;;;;;;3.87;100.00;97775.81;5071931;28;20028;-76
2024/02/04 04:12:11;;;;;;;52.22;24.90;;;;;;;3.87;100.00;97773.19;5054924;28;20031;-77
2024/02/04 04:14:36;;;;;;;46.78;24.50;;;;;;;3.75;100.00;97767.34;5056801;28;20024;-77
2024/02/04 04:17:02;;;;;;;49.45;23.65;;;;;;;3.62;100.00;97752.78;5073129;28;20058;-76
2024/02/04 04:19:27;;;;;;;51.15;23.35;;;;;;;3.58;100.00;97768.78;5056446;28;20051;-77
2024/02/04 04:21:54;;;;;;;53.30;23.27;;;;;;;3.49;100.00;97769.94;5070678;28;20115;-76
2024/02/04 04:24:22;;;;;;;46.10;22.95;;;;;;;3.42;100.00;97768.38;5068120;28;20028;-76
2024/02/04 04:26:47;;;;;;;45.50;22.83;;;;;;;3.45;100.00;97778.88;5075363;28;20040;-75
2024/02/04 04:29:13;;;;;;;59.40;23.73;;;;;;;3.43;100.00;97769.25;5074819;28;20027;-76
2024/02/04 04:31:38;;;;;;;43.22;21.73;;;;;;;3.35;100.00;97776.56;5059648;28;20024;-75
2024/02/04 04:34:04;;;;;;;49.45;22.77;;;;;;;3.36;100.00;97788.84;5068317;28;20104;-76
2024/02/04 04:36:30;;;;;;;46.10;21.80;;;;;;;3.25;100.00;97790.06;5054869;28;20024;-77
2024/02/04 04:38:55;;;;;;;48.35;22.88;;;;;;;3.14;100.00;97791.25;5055156;28;20029;-77
2024/02/04 04:41:21;;;;;;;51.13;24.00;;;;;;;3.18;100.00;97787.63;5081150;28;20164;-75
2024/02/04 04:43:46;;;;;;;48.45;23.25;;;;;;;3.07;100.00;97787.06;5059102;28;20024;-76
2024/02/04 04:46:12;;;;;;;53.80;24.27;;;;;;;3.01;100.00;97779.31;5059010;28;20043;-76
2024/02/04 04:48:38;;;;;;;50.15;23.50;;;;;;;3.03;100.00;97793.34;5066876;28;20140;-77
2024/02/04 04:51:03;;;;;;;53.10;24.98;;;;;;;2.99;100.00;97789.03;5066096;28;20028;-77
2024/02/04 04:53:29;;;;;;;48.97;24.13;;;;;;;2.92;100.00;97785.72;5061568;28;20145;-76
2024/02/04 04:55:54;;;;;;;56.72;27.23;;;;;;;2.97;100.00;97773.25;5068044;28;20467;-77
2024/02/04 04:58:20;;;;;;;61.65;28.98;;;;;;;3.03;100.00;97775.72;5082986;28;20028;-78
2024/02/04 05:00:46;;;;;;;57.38;27.33;;;;;;;3.19;100.00;97802.56;5054403;28;20173;-76
2024/02/04 05:03:11;;;;;;;58.53;27.75;;;;;;;3.31;100.00;97812.78;5078154;28;20503;-75
2024/02/04 05:05:37;;;;;;;58.92;30.63;;;;;;;3.42;100.00;97812.47;5063811;28;20488;-76
2024/02/04 05:08:03;;;;;;;59.45;29.85;;;;;;;3.50;100.00;97814.00;5056229;28;20145;-77
2024/02/04 05:10:29;;;;;;;51.38;27.60;;;;;;;3.62;100.00;97813.63;5055444;28;20090;-77
2024/02/04 05:12:55;;;;;;;56.45;28.25;;;;;;;3.68;100.00;97805.50;5071057;28;20028;-76
2024/02/04 05:15:21;;;;;;;52.95;27.77;;;;;;;3.82;100.00;97800.63;5054118;28;20040;-76
2024/02/04 05:17:46;;;;;;;55.33;26.95;;;;;;;3.90;100.00;97795.13;5062639;28;20122;-76
2024/02/04 05:20:12;;;;;;;63.80;28.65;;;;;;;3.91;100.00;97801.28;5061416;28;20515;-76
2024/02/04 05:22:38;;;;;;;57.20;27.70;;;;;;;3.87;100.00;97808.44;5072806;28;20036;-77
2024/02/04 05:25:05;;;;;;;61.22;31.25;;;;;;;3.64;100.00;97801.19;5063999;28;20070;-79
2024/02/04 05:27:30;;;;;;;72.20;35.72;;;;;;;3.82;100.00;97819.16;5071012;28;20444;-77
2024/02/04 05:29:56;;;;;;;85.75;38.78;;;;;;;3.85;100.00;97836.69;5073376;28;20034;-77
2024/02/04 05:32:22;;;;;;;84.45;38.30;;;;;;;3.72;100.00;97824.78;5090674;28;20040;-77
2024/02/04 05:34:47;;;;;;;79.70;38.10;;;;;;;3.71;100.00;97821.28;5073737;28;20103;-76
2024/02/04 05:37:13;;;;;;;70.20;33.67;;;;;;;3.68;100.00;97824.00;5082781;28;20077;-77
2024/02/04 05:39:39;;;;;;;71.60;32.67;;;;;;;3.82;100.00;97826.22;5056249;28;20089;-77
2024/02/04 05:42:04;;;;;;;68.00;32.17;;;;;;;3.66;100.00;97812.59;5054367;28;20170;-78
2024/02/04 05:44:30;;;;;;;69.15;33.65;;;;;;;3.70;100.00;97832.75;5053971;28;20085;-77
2024/02/04 05:46:55;;;;;;;64.70;31.15;;;;;;;3.54;100.00;97810.31;5058711;28;20063;-77
2024/02/04 05:49:21;;;;;;;61.35;30.80;;;;;;;3.55;100.00;97832.34;5058617;28;20029;-77
2024/02/04 05:51:47;;;;;;;56.83;27.83;;;;;;;3.51;100.00;97852.72;5073713;28;20116;-76
2024/02/04 05:54:12;;;;;;;57.10;27.77;;;;;;;3.51;100.00;97852.72;5059741;28;20028;-77
2024/02/04 05:56:38;;;;;;;56.38;27.48;;;;;;;3.54;100.00;97863.19;5053701;28;20036;-76
2024/02/04 05:59:05;;;;;;;64.03;29.13;;;;;;;3.56;100.00;97856.13;5064496;28;20503;-77
2024/02/04 06:01:30;;;;;;;62.30;28.98;;;;;;;3.69;100.00;97870.69;5058547;28;20473;-77
2024/02/04 06:03:56;;;;;;;61.85;30.77;;;;;;;3.65;100.00;97866.41;5061576;28;20032;-77
2024/02/04 06:06:22;;;;;;;69.47;34.35;;;;;;;3.50;100.00;97852.78;5067214;28;20189;-78
2024/02/04 06:08:47;;;;;;;80.25;36.20;;;;;;;3.46;100.00;97846.72;5064258;28;20571;-78
2024/02/04 06:11:13;;;;;;;76.13;34.15;;;;;;;3.51;100.00;97863.28;5065212;28;20052;-77
2024/02/04 06:13:43;;;;;;;64.80;30.55;;;;;;;3.51;100.00;97868.59;5090432;28;20130;-78
2024/02/04 06:16:12;;;;;;;62.72;30.00;;;;;;;3.53;100.00;97856.19;5073672;28;20032;-76
2024/02/04 06:18:39;;;;;;;63.40;29.95;;;;;;;3.60;100.00;97863.03;5073631;28;20028;-78
2024/02/04 06:21:05;;;;;;;57.30;28.63;;;;;;;3.61;100.00;97848.91;5087366;28;20035;-77
2024/02/04 06:23:31;;;;;;;64.85;29.48;;;;;;;3.72;100.00;97872.41;5058918;28;20024;-78
2024/02/04 06:25:57;;;;;;;78.93;34.85;;;;;;;3.72;100.00;97873.25;5072471;28;20086;-77
2024/02/04 06:28:22;;;;;;;74.50;34.00;;;;;;;3.68;100.00;97868.97;5059908;28;20028;-77
2024/02/04 06:30:49;;;;;;;69.63;33.83;;;;;;;3.64;100.00;97864.69;5052932;28;20034;-78
2024/02/04 06:33:15;;;;;;;73.20;36.35;;;;;;;3.77;100.00;97870.47;5052821;28;20064;-76
2024/02/04 06:35:40;;;;;;;75.22;38.15;;;;;;;3.82;100.00;97860.59;5052827;28;20086;-77
2024/02/04 06:38:06;;;;;;;75.60;37.97;;;;;;;3.76;100.00;97869.59;5054717;28;20024;-78
2024/02/04 06:40:32;;;;;;;88.97;42.95;;;;;;;3.82;100.00;97865.91;5058999;28;20511;-77
2024/02/04 06:42:57;;;;;;;83.15;40.10;;;;;;;4.20;100.00;97883.25;5069973;28;20116;-78
2024/02/04 06:45:23;;;;;;;84.95;39.38;;;;;;;4.53;100.00;97895.41;5081464;28;20035;-76
2024/02/04 06:47:49;;;;;;;103.35;49.63;;;;;;;4.81;100.00;97900.66;5089390;28;20020;-77
2024/02/04 06:50:15;;;;;;;122.28;55.63;;;;;;;5.00;100.00;97879.72;5063924;28;20527;-77
2024/02/04 06:52:42;;;;;;;88.38;42.53;;;;;;;5.33;100.00;97881.16;5082993;28;20025;-76
2024/02/04 06:55:08;;;;;;;93.00;44.10;;;;;;;5.67;100.00;97886.97;5060775;28;20513;-77
2024/02/04 06:57:34;;;;;;;69.78;35.35;;;;;;;5.64;100.00;97876.47;5057516;28;20114;-76
2024/02/04 06:59:59;;;;;;;241.75;133.52;;;;;;;5.65;100.00;97885.31;5063489;28;20056;-77
2024/02/04 07:02:25;;;;;;;116.82;59.13;;;;;;;5.47;100.00;97870.94;5060913;28;20037;-75
2024/02/04 07:04:51;;;;;;;79.72;39.55;;;;;;;5.33;100.00;97858.16;5060711;28;20452;-76
2024/02/04 07:07:16;;;;;;;68.68;33.42;;;;;;;5.29;100.00;97842.44;5051950;28;20071;-78
2024/02/04 07:10:00;;;;;;;68.20;36.15;;;;;;;5.44;100.00;97844.53;5069104;28;20040;-76
2024/02/04 07:12:26;;;;;;;70.32;35.63;;;;;;;5.67;100.00;97865.75;5068909;28;20033;-77
2024/02/04 07:14:52;;;;;;;64.47;34.03;;;;;;;5.91;100.00;97856.03;5052241;28;20055;-75
2024/02/04 07:17:17;;;;;;;68.22;34.03;;;;;;;6.05;100.00;97856.38;5060394;28;20088;-77
2024/02/04 07:19:43;;;;;;;67.43;34.88;;;;;;;5.89;100.00;97868.50;5058826;28;20028;-77
2024/02/04 07:22:09;;;;;;;64.15;30.48;;;;;;;6.03;100.00;97844.91;5089302;28;20103;-77
2024/02/04 07:24:35;;;;;;;70.80;36.17;;;;;;;6.20;100.00;97836.31;5064397;28;20103;-77
2024/02/04 07:27:01;;;;;;;59.78;31.42;;;;;;;6.42;100.00;97838.03;5063705;28;20105;-78
2024/02/04 07:29:26;;;;;;;60.53;31.23;;;;;;;6.66;100.00;97836.16;5063798;28;20080;-78
2024/02/04 07:31:52;;;;;;;62.95;32.30;;;;;;;6.85;100.00;97842.44;5057368;28;20043;-77
2024/02/04 07:34:17;;;;;;;68.30;33.50;;;;;;;7.23;100.00;97837.25;5087535;28;20079;-76
2024/02/04 07:36:44;;;;;;;67.60;34.28;;;;;;;7.15;100.00;97786.19;5072303;28;20557;-75
2024/02/04 07:39:10;;;;;;;77.22;40.05;;;;;;;7.64;100.00;97829.13;5071409;28;20016;-76
2024/02/04 07:41:36;;;;;;;79.30;41.63;;;;;;;7.65;100.00;97814.03;5060291;28;20484;-76
2024/02/04 07:44:01;;;;;;;107.70;50.28;;;;;;;7.70;100.00;97830.66;5059943;28;20454;-76
2024/02/04 07:46:27;;;;;;;111.05;54.95;;;;;;;7.58;100.00;97826.75;5063743;28;20446;-77
2024/02/04 07:48:53;;;;;;;131.38;65.45;;;;;;;7.57;100.00;97825.00;5071992;28;20415;-77
2024/02/04 07:51:18;;;;;;;137.50;66.30;;;;;;;7.56;100.00;97830.44;5072160;28;20093;-76
2024/02/04 07:53:44;;;;;;;125.68;62.90;;;;;;;7.71;100.00;97827.06;5067564;28;20023;-78
2024/02/04 07:56:10;;;;;;;122.40;63.05;;;;;;;7.91;100.00;97829.66;5059057;28;20483;-77
2024/02/04 07:58:36;;;;;;;124.78;60.88;;;;;;;8.08;100.00;97842.19;5072776;28;20024;-77
2024/02/04 08:01:02;;;;;;;146.50;71.25;;;;;;;7.98;100.00;97840.88;5072274;28;20029;-76
2024/02/04 08:03:27;;;;;;;211.32;110.03;;;;;;;7.94;100.00;97849.94;5074594;28;20042;-77
2024/02/04 08:05:53;;;;;;;119.20;56.08;;;;;;;8.14;100.00;97840.09;5092633;28;20115;-76
2024/02/04 08:08:19;;;;;;;136.88;69.32;;;;;;;8.29;100.00;97830.53;5074716;28;20107;-77
2024/02/04 08:10:44;;;;;;;79.20;38.47;;;;;;;8.49;100.00;97835.75;5080479;28;20425;-77
2024/02/04 08:13:10;;;;;;;101.35;51.03;;;;;;;8.55;100.00;97810.59;5055191;28;20107;-76
2024/02/04 08:15:36;;;;;;;173.18;91.10;;;;;;;8.56;100.00;97813.19;5063605;28;20492;-80
2024/02/04 08:18:01;;;;;;;102.78;50.67;;;;;;;8.82;100.00;97813.69;5082993;28;20050;-80
2024/02/04 08:20:27;;;;;;;95.00;52.13;;;;;;;9.38;100.00;97805.41;5055031;28;20032;-80
2024/02/04 08:22:52;;;;;;;91.50;47.53;;;;;;;9.61;100.00;97791.69;5068027;28;20068;-78
2024/02/04 08:25:18;;;;;;;98.07;50.08;;;;;;;9.78;100.00;97795.16;5052702;28;20045;-78
2024/02/04 08:27:44;;;;;;;118.28;62.40;;;;;;;9.56;100.00;97789.28;5055468;28;20032;-78
2024/02/04 08:30:11;;;;;;;88.03;48.40;;;;;;;9.41;100.00;97795.44;5073974;28;20036;-78
2024/02/04 08:32:37;;;;;;;102.43;49.25;;;;;;;9.31;100.00;97809.34;5072219;28;20507;-80
2024/02/04 08:35:04;;;;;;;102.15;51.28;;;;;;;9.12;100.00;97812.97;5059678;28;20111;-78
2024/02/04 08:37:30;;;;;;;95.43;50.05;;;;;;;9.15;100.00;97818.16;5060909;28;20032;-79
2024/02/04 08:39:55;;;;;;;100.20;51.80;;;;;;;9.05;100.00;97819.56;5064637;28;20036;-75
2024/02/04 08:42:21;;;;;;;113.30;51.35;;;;;;;9.20;100.00;97813.44;5073010;28;20360;-75
2024/02/04 08:44:47;;;;;;;107.80;51.45;;;;;;;9.29;100.00;97811.25;5085646;28;20107;-80
2024/02/04 08:47:14;;;;;;;101.90;52.83;;;;;;;9.11;100.00;97810.38;5053893;28;20047;-80
2024/02/04 08:49:40;;;;;;;92.97;46.05;;;;;;;9.33;100.00;97796.75;5065654;28;20388;-81
2024/02/04 08:52:05;;;;;;;117.25;49.17;;;;;;;9.41;100.00;97806.13;5074338;28;20031;-78
2024/02/04 08:54:31;;;;;;;105.20;50.47;;;;;;;9.59;100.00;97804.25;5063647;28;20029;-76
2024/02/04 08:56:56;;;;;;;117.50;59.13;;;;;;;9.38;100.00;97803.63;5068332;28;20468;-77
2024/02/04 08:59:24;;;;;;;119.65;59.58;;;;;;;9.60;100.00;97808.63;5069456;28;20039;-78
2024/02/04 09:01:50;;;;;;;112.75;53.35;;;;;;;9.72;100.00;97786.63;5062533;28;20031;-77
2024/02/04 09:04:15;;;;;;;104.35;48.83;;;;;;;10.01;100.00;97815.28;5076714;28;20078;-78
2024/02/04 09:06:41;;;;;;;72.82;34.92;;;;;;;9.85;100.00;97811.72;5079770;28;20039;-78
2024/02/04 09:09:08;;;;;;;79.55;40.67;;;;;;;10.25;100.00;97805.03;5055286;28;20454;-78
2024/02/04 09:11:34;;;;;;;81.43;40.42;;;;;;;10.74;100.00;97805.75;5071564;28;20143;-77
2024/02/04 09:13:59;;;;;;;123.03;61.90;;;;;;;11.49;100.00;97796.75;5086411;28;20088;-77
2024/02/04 09:16:25;;;;;;;69.85;35.72;;;;;;;12.48;100.00;97790.38;5060807;28;20107;-77
2024/02/04 09:18:51;;;;;;;66.78;37.85;;;;;;;12.18;100.00;97799.56;5070218;28;20020;-77
2024/02/04 09:21:16;;;;;;;55.17;28.77;;;;;;;11.87;100.00;97809.53;5062527;28;20031;-77
2024/02/04 09:23:42;;;;;;;45.67;26.70;;;;;;;11.56;100.00;97823.09;5069690;28;20028;-77
2024/02/04 09:26:07;;;;;;;40.58;21.75;;;;;;;11.16;100.00;97816.63;5084136;28;20043;-78
2024/02/04 09:28:33;;;;;;;35.47;18.70;;;;;;;11.17;100.00;97826.34;5060425;28;20071;-78
2024/02/04 09:30:59;;;;;;;35.92;19.75;;;;;;;11.23;100.00;97830.47;5063433;28;20469;-79
2024/02/04 09:33:25;;;;;;;36.92;20.85;;;;;;;11.25;100.00;97815.19;5068500;28;20043;-78
2024/02/04 09:35:50;;;;;;;42.33;22.27;;;;;;;12.18;100.00;97819.16;5061859;28;20200;-78
2024/02/04 09:38:16;;;;;;;40.85;23.05;;;;;;;14.05;95.33;97778.56;5078255;28;20025;-78
2024/02/04 09:40:41;;;;;;;45.30;26.33;;;;;;;15.55;80.26;97774.41;5063228;28;20036;-81
2024/02/04 09:43:07;;;;;;;46.83;29.17;;;;;;;16.77;69.96;97759.00;5069273;28;20536;-78
2024/02/04 09:45:33;;;;;;;62.05;35.78;;;;;;;17.64;61.38;97748.88;5070754;28;20500;-77
2024/02/04 09:48:00;;;;;;;66.63;38.50;;;;;;;17.04;62.42;97757.69;5061955;28;20132;-78
2024/02/04 09:50:26;;;;;;;68.10;39.63;;;;;;;16.49;63.25;97759.53;5055327;28;20032;-77
2024/02/04 09:52:57;;;;;;;87.47;47.38;;;;;;;16.11;64.56;97759.13;5064233;28;20036;-77
2024/02/04 09:55:24;;;;;;;88.20;52.30;;;;;;;16.19;66.21;97759.34;5062189;28;20031;-78
2024/02/04 09:57:50;;;;;;;89.47;48.10;;;;;;;15.98;68.70;97766.47;5080854;28;20432;-78
2024/02/04 10:00:18;;;;;;;96.38;51.28;;;;;;;16.00;67.75;97757.28;5070756;28;20077;-78
2024/02/04 10:02:44;;;;;;;89.13;48.60;;;;;;;15.85;69.71;97765.72;5062636;28;20035;-79
2024/02/04 10:05:10;;;;;;;92.47;52.53;;;;;;;16.42;66.70;97752.09;5074981;28;20028;-79
2024/02/04 10:07:36;;;;;;;83.85;46.85;;;;;;;16.96;65.86;97750.22;5090630;28;20507;-78
2024/02/04 10:10:02;;;;;;;84.30;48.00;;;;;;;17.74;61.82;97757.91;5063592;28;20059;-77
2024/02/04 10:12:28;;;;;;;62.40;34.28;;;;;;;20.00;54.24;97745.91;5086821;28;20504;-78
2024/02/04 10:14:53;;;;;;;55.55;32.25;;;;;;;22.38;47.88;97718.72;5078397;28;20020;-79
2024/02/04 10:17:23;;;;;;;57.65;35.22;;;;;;;24.26;42.34;97710.34;5072005;28;20483;-78
2024/02/04 10:19:48;;;;;;;22.58;14.90;;;;;;;24.41;39.90;97693.19;5078164;28;20081;-79
2024/02/04 10:22:16;;;;;;;11.50;7.70;;;;;;;23.48;40.54;97716.59;5064914;28;20051;-79
2024/02/04 10:24:42;;;;;;;8.63;6.10;;;;;;;21.69;42.60;97697.91;5067200;28;20036;-78
2024/02/04 10:27:10;;;;;;;13.05;7.30;;;;;;;20.73;44.45;97717.81;5070988;28;20123;-78
2024/02/04 10:29:36;;;;;;;5.38;3.47;;;;;;;19.40;46.52;97733.63;5059810;28;20514;-79
2024/02/04 10:32:02;;;;;;;3.60;2.90;;;;;;;18.12;49.20;97732.88;5062881;28;20128;-79
2024/02/04 10:34:29;;;;;;;5.82;3.15;;;;;;;17.49;51.42;97745.63;5088080;28;20404;-78
2024/02/04 10:36:56;;;;;;;6.22;3.72;;;;;;;17.11;52.63;97739.94;5080251;28;20032;-77
2024/02/04 10:39:22;;;;;;;4.80;3.72;;;;;;;16.71;53.75;97739.75;5081584;28;20082;-78
2024/02/04 10:41:52;;;;;;;10.90;6.25;;;;;;;16.40;56.08;97749.50;5065194;28;20468;-77
2024/02/04 10:44:21;;;;;;;15.15;6.25;;;;;;;16.05;58.31;97762.31;5057912;28;20020;-79
2024/02/04 10:46:48;;;;;;;12.45;6.22;;;;;;;15.72;59.20;97757.75;5071643;28;20034;-78
2024/02/04 10:49:18;;;;;;;9.00;5.28;;;;;;;15.19;62.13;97752.03;5069719;28;20496;-78
2024/02/04 10:51:45;;;;;;;9.32;5.43;;;;;;;14.96;64.82;97743.97;5053746;28;20032;-78
2024/02/04 10:54:12;;;;;;;28.98;8.93;;;;;;;14.72;67.45;97745.84;5057632;28;20113;-79
2024/02/04 10:56:56;;;;;;;9.95;5.85;;;;;;;14.58;67.16;97745.03;5055800;28;20024;-79
2024/02/04 10:59:23;;;;;;;11.65;6.28;;;;;;;14.46;67.02;97723.53;5055994;28;20024;-78
2024/02/04 11:01:48;;;;;;;27.55;10.40;;;;;;;14.42;68.06;97739.09;5066885;28;20036;-78
2024/02/04 11:04:15;;;;;;;15.77;7.60;;;;;;;14.29;69.92;97753.53;5075431;28;20098;-77
2024/02/04 11:06:42;;;;;;;4.00;3.00;;;;;;;14.16;69.47;97725.78;5059203;28;20107;-78
2024/02/04 11:09:09;;;;;;;24.52;15.88;;;;;;;14.25;70.60;97736.75;5061188;28;20028;-78
2024/02/04 11:11:39;;;;;;;23.08;14.10;;;;;;;14.37;71.04;97735.00;5073614;28;20024;-78
2024/02/04 11:14:09;;;;;;;14.55;8.13;;;;;;;14.54;69.67;97740.00;5060789;28;20039;-79